Rolling Meadows, Illinois
Current Conditions -  °F | °C
As of 7:52 PM on Sunday 25 Jan 2015 (Local Time) from KPWK Reporting Station
Clear Clear  
Wind Chill: 15°   Ceiling: Unl
Heat Index: 26°   Visibility: 10mi
Dew Point: 14°   Wind: 13mph
Humidity: 60%   Direction: 30°NNE
Pressure: 30"   Gusts: NA
Location:  42.08°N, 88.03°W
Report Text: KPWK 260152Z 03011KT 10SM CLR M03/M10 A3000 RMK AO2 SLP165 T10331100
Loading
Personal Weather Stations






























Interactive Weather Map New forecast layout! Learn more

10-Day Weather Forecast

Advertisements
Track Severe Weather on mobile